Have a Safe July 4th! 

Flight Track Log - Related Links

Times and Time Zones

All times are in EDT time to prevent confusion due to time zone crossing. See the SWA499 flight status page for this flight to view local times or setup timezone preferences in your user account.

Time Position Orientation Groundspeed Altitude Reporting Facility
EDT Latitude Longitude Course Direction KTS MPH feet Rate Location/Type
Thu 10:24:43 AM 40.7989 -111.9622 358° North 168 193 4,700  Level Salt Lake Center
Thu 10:25:08 AM 40.8206 -111.9633 358° North 188 216 5,700 1,957 Climbing Salt Lake Center
Thu 10:26:15 AM 40.8747 -111.9708 354° North 203 234 7,700 2,279 Climbing Salt Lake Center
Thu 10:27:17 AM 40.9428 -111.9814 353° North 240 276 10,600 2,613 Climbing Salt Lake Center
Thu 10:28:19 AM 40.9833 -111.9344 41° Northeast 262 302 13,100 2,293 Climbing Salt Lake Center
Thu 10:29:20 AM 40.9594 -111.8039 104° East 334 384 15,300 2,537 Climbing Salt Lake Center
Thu 10:30:22 AM 40.9467 -111.6783 98° East 353 406 18,300 2,371 Climbing Salt Lake Center
Thu 10:31:24 AM 40.9283 -111.5400 100° East 382 440 20,200 2,177 Climbing Salt Lake Center
Thu 10:32:26 AM 40.9089 -111.3931 100° East 405 466 22,800 2,710 Climbing Salt Lake Center
Thu 10:33:28 AM 40.8872 -111.2100 99° East 421 484 25,800 2,488 Climbing Salt Lake Center
Thu 10:34:29 AM 40.8686 -111.0539 99° East 430 495 27,900 1,951 Climbing Salt Lake Center
Thu 10:35:31 AM 40.8483 -110.8931 99° East 443 510 29,800 1,742 Climbing Salt Lake Center
Thu 10:36:33 AM 40.8286 -110.7269 99° East 456 525 31,500 1,548 Climbing Salt Lake Center
Thu 10:37:35 AM 40.8069 -110.5453 99° East 466 536 33,000 1,306 Climbing Salt Lake Center
Thu 10:38:37 AM 40.7858 -110.3797 100° East 478 550 34,200 1,597 Climbing Salt Lake Center
Thu 10:39:39 AM 40.7589 -110.1808 100° East 481 554 36,300 1,887 Climbing Salt Lake Center
Thu 10:40:41 AM 40.7403 -110.0194 99° East 468 539 38,100 1,220 Climbing Salt Lake Center
Thu 10:41:42 AM 40.7275 -109.8297 95° East 466 536 38,800 439 Climbing Salt Lake Center
Thu 10:42:44 AM 40.7153 -109.6619 95° East 477 549 39,000 97 Climbing Salt Lake Center
Thu 10:43:46 AM 40.7025 -109.4967 96° East 473 544 39,000  Level Salt Lake Center
Thu 10:44:48 AM 40.6894 -109.3056 95° East 470 541 39,000  Level Salt Lake Center
Thu 10:45:50 AM 40.6775 -109.1253 95° East 471 542 39,000 -145 Level Salt Lake Center
Thu 10:46:52 AM 40.6656 -108.9625 95° East 471 542 38,700 -677 Descending Salt Lake Center
Thu 10:47:54 AM 40.6525 -108.7722 95° East 472 543 37,600 -823 Descending Salt Lake Center
Thu 10:48:56 AM 40.6406 -108.6069 95° East 475 547 37,000 -290 Descending Salt Lake Center
Thu 10:49:58 AM 40.6258 -108.4181 96° East 470 541 37,000  Level Salt Lake Center
Thu 10:51:00 AM 40.6125 -108.2547 96° East 470 541 37,000  Level Salt Lake Center
Thu 10:52:01 AM 40.5981 -108.0703 96° East 470 541 37,000  Level Denver Center
Thu 10:53:03 AM 40.5850 -107.9044 96° East 474 545 37,000 -194 Level Denver Center
Thu 10:54:05 AM 40.5692 -107.7131 96° East 472 543 36,600 -677 Descending Denver Center
Thu 10:55:07 AM 40.5542 -107.5536 97° East 463 533 35,600 -774 Descending Denver Center
Thu 10:56:09 AM 40.5394 -107.3703 96° East 454 522 35,000 -290 Descending Denver Center
Thu 10:57:11 AM 40.5258 -107.2064 96° East 454 522 35,000  Level Denver Center
Thu 10:58:13 AM 40.5117 -107.0414 96° East 453 521 35,000  Level Denver Center
Thu 10:59:15 AM 40.4958 -106.8753 97° East 456 525 35,000 -194 Level Denver Center
Thu 11:00:17 AM 40.4811 -106.7108 97° East 452 520 34,600 -919 Descending Denver Center
Thu 11:01:19 AM 40.4658 -106.5481 97° East 449 517 33,100 -2,129 Descending Denver Center
Thu 11:02:21 AM 40.4503 -106.3797 97° East 445 512 30,200 -2,640 Descending Denver Center
Thu 11:03:24 AM 40.4333 -106.2017 97° East 442 509 27,600 -2,256 Descending Denver Center
Thu 11:04:26 AM 40.4183 -106.0442 97° East 419 482 25,500 -1,984 Descending Denver Center
Thu 11:05:28 AM 40.4031 -105.8969 98° East 401 461 23,500 -1,839 Descending Denver Center
Thu 11:06:30 AM 40.3908 -105.7636 97° East 380 437 21,700 -1,790 Descending Denver Center
Thu 11:07:32 AM 40.3739 -105.6206 99° East 389 448 19,800 -1,548 Descending Denver Center
Thu 11:08:34 AM 40.3614 -105.4889 97° East 377 434 18,500 -919 Descending Denver Center
Thu 11:09:36 AM 40.3464 -105.3606 99° East 324 373 17,900 -1,210 Descending Denver Center
Thu 11:10:38 AM 40.3289 -105.2397 101° East 316 364 16,000 -1,742 Descending Denver Center
Thu 11:11:40 AM 40.3139 -105.1267 100° East 315 362 14,300 -1,403 Descending Denver Center
Thu 11:12:42 AM 40.2975 -105.0108 100° East 303 349 13,100 -1,065 Descending Denver Center
Thu 11:13:44 AM 40.2569 -104.9214 121° Southeast 289 333 12,100 -774 Descending Denver Center
Thu 11:14:46 AM 40.2178 -104.8369 121° Southeast 276 318 11,500 -726 Descending Denver Center
Thu 11:15:48 AM 40.1517 -104.7936 153° Southeast 246 283 10,600 -1,016 Descending Denver Center
Thu 11:16:50 AM 40.0908 -104.7581 156° South 240 276 9,400 -1,258 Descending Denver Center
Thu 11:17:52 AM 40.0264 -104.7219 157° South 235 270 8,000 -1,161 Descending Denver Center
Thu 11:18:54 AM 39.9772 -104.6944 157° South 197 227 7,000 -919 Descending Denver Center
Thu 11:19:56 AM 39.9283 -104.6958 181° South 164 189 6,100 -823 Descending Denver Center
Thu 11:20:58 AM 39.8911 -104.6964 181° South 149 171 5,300 -774 Descending Denver Center
Thu 11:22:00 AM 39.8617 -104.6732 North  Level Estimated
Thu 11:29:00 AM 39.8617 -104.6732 North  Level Estimated
Thu 11:30:00 AM 39.8617 -104.6732 North  Level Estimated
Thu 11:31:00 AM 39.8617 -104.6732 North  Level Estimated

Login

Don't have an account? Register now (free) for customized features, flight alerts, and more!